Airport View

Enter AWOS ICAO identifier for current METAR.

ex. KFNL

KSTE 171249Z AUTO 17004KT 7SM SCT070 SCT120 M01/M03 A2997 RMK AO2 T10101028

17 Nov 2019 12:49

Frequency: 119.275

Phone: 715-344-5960

Other Area AWOS: KCWA - KISW - KAUW - KPCZ

TAF KCWA 171133Z 1712/1812 17008KT 6SM BR SCT016 OVC070 FM171300 18007KT 5SM BR OVC030 FM171500 17006KT 3SM -SN OVC014 FM171800 22006KT 5SM -SN OVC007 FM172300 27005KT P6SM OVC009 FM180200 30004KT P6SM OVC012